Řízení letového provozu České republiky
Letiste: LKKB Aktualizace: 27.05.2018 00:01:07  UTC
 METAR LKKB 27.05. 00:00 ...
METAR LKKB 270000Z VRB02KT CAVOK 16/11 Q1021 RMK BLU=
 TAF LKKB 26.05. 23:00 ...
TAF LKKB 262300Z 2700/2800 VRB02KT CAVOK      BECMG 2707/2709 09008KT 9999 SCT030      TEMPO 2710/2716 16010G20KT      BECMG 2716/2718 CAVOK=